createdAt,value
2018-09-21T00:00:31.422Z,99935.70
2018-09-21T00:03:00.325Z,99919.48
2018-09-21T00:05:29.301Z,99929.61
2018-09-21T00:07:58.230Z,99922.19
2018-09-21T00:10:27.181Z,99928.59
2018-09-21T00:12:56.113Z,99925.87
2018-09-21T00:15:25.069Z,99924.45
2018-09-21T00:17:53.997Z,99919.17
2018-09-21T00:20:22.963Z,99906.38
2018-09-21T00:22:51.911Z,99908.04
2018-09-21T00:25:20.880Z,99901.63
2018-09-21T00:27:49.781Z,99897.28
2018-09-21T00:30:18.761Z,99902.49
2018-09-21T00:32:47.705Z,99899.79
2018-09-21T00:35:16.671Z,99894.59
2018-09-21T00:37:45.707Z,99890.09
2018-09-21T00:40:14.759Z,99883.61
2018-09-21T00:42:43.686Z,99893.29
2018-09-21T00:45:12.666Z,99882.88
2018-09-21T00:47:41.594Z,99890.08
2018-09-21T00:50:10.575Z,99886.84
2018-09-21T00:52:39.488Z,99883.12
2018-09-21T00:55:08.509Z,99879.08
2018-09-21T00:57:37.416Z,99883.02
2018-09-21T01:00:06.628Z,99872.66
2018-09-21T01:02:35.539Z,99871.77
2018-09-21T01:05:04.502Z,99873.95
2018-09-21T01:07:33.405Z,99879.97
2018-09-21T01:10:02.367Z,99874.05
2018-09-21T01:12:31.286Z,99870.30
2018-09-21T01:15:00.268Z,99873.95
2018-09-21T01:17:29.217Z,99865.59
2018-09-21T01:19:58.184Z,99870.09
2018-09-21T01:22:27.090Z,99864.72
2018-09-21T01:24:56.062Z,99858.63
2018-09-21T01:27:25.009Z,99861.63
2018-09-21T01:29:53.967Z,99856.36
2018-09-21T01:32:22.964Z,99857.38
2018-09-21T01:34:51.925Z,99862.77
2018-09-21T01:37:20.838Z,99854.77
2018-09-21T01:39:49.802Z,99857.66
2018-09-21T01:42:18.726Z,99851.21
2018-09-21T01:44:47.656Z,99843.38
2018-09-21T01:47:16.575Z,99844.16
2018-09-21T01:49:45.549Z,99854.45
2018-09-21T01:52:14.550Z,99848.07
2018-09-21T01:54:43.562Z,99836.64
2018-09-21T01:57:12.769Z,99837.93
2018-09-21T01:59:41.722Z,99837.42
2018-09-21T02:02:10.662Z,99827.67
2018-09-21T02:04:40.695Z,99830.20
2018-09-21T02:07:11.254Z,99827.67
2018-09-21T02:09:40.502Z,99824.89
2018-09-21T02:12:09.466Z,99818.66
2018-09-21T02:14:38.381Z,99815.09
2018-09-21T02:17:07.427Z,99806.83
2018-09-21T02:19:36.426Z,99807.13
2018-09-21T02:22:05.403Z,99806.47
2018-09-21T02:24:34.327Z,99799.02
2018-09-21T02:27:03.299Z,99789.13
2018-09-21T02:29:32.241Z,99791.77
2018-09-21T02:32:01.234Z,99794.13
2018-09-21T02:34:34.237Z,99793.36
2018-09-21T02:37:03.160Z,99796.55
2018-09-21T02:39:32.096Z,99787.94
2018-09-21T02:42:01.073Z,99788.61
2018-09-21T02:44:30.012Z,99775.25
2018-09-21T02:46:58.977Z,99779.06
2018-09-21T02:49:27.881Z,99777.42
2018-09-21T02:51:56.883Z,99780.78
2018-09-21T02:54:25.788Z,99777.70
2018-09-21T02:56:54.854Z,99782.27
2018-09-21T02:59:23.798Z,99784.67
2018-09-21T03:01:52.758Z,99776.36
2018-09-21T03:04:21.705Z,99772.78
2018-09-21T03:06:50.630Z,99767.88
2018-09-21T03:09:19.590Z,99763.13
2018-09-21T03:11:48.534Z,99762.27
2018-09-21T03:14:17.456Z,99764.81
2018-09-21T03:16:46.416Z,99764.00
2018-09-21T03:19:15.327Z,99758.50
2018-09-21T03:21:44.322Z,99748.97
2018-09-21T03:24:13.226Z,99746.50
2018-09-21T03:26:42.195Z,99749.72
2018-09-21T03:29:11.102Z,99744.81
2018-09-21T03:31:40.087Z,99737.92
2018-09-21T03:34:08.999Z,99730.62
2018-09-21T03:36:38.008Z,99727.92
2018-09-21T03:39:08.461Z,99726.31
2018-09-21T03:41:37.726Z,99723.39
2018-09-21T03:44:06.660Z,99719.79
2018-09-21T03:46:35.704Z,99721.66
2018-09-21T03:49:04.709Z,99723.83
2018-09-21T03:51:33.705Z,99722.98
2018-09-21T03:54:02.610Z,99723.26
2018-09-21T03:56:31.527Z,99715.93
2018-09-21T03:59:00.418Z,99712.56
2018-09-21T04:01:29.385Z,99708.69
2018-09-21T04:03:58.332Z,99704.32
2018-09-21T04:06:27.325Z,99697.72
2018-09-21T04:08:56.352Z,99705.61
2018-09-21T04:11:25.561Z,99696.49
2018-09-21T04:13:54.526Z,99695.33
2018-09-21T04:16:23.437Z,99694.08
2018-09-21T04:18:52.416Z,99687.42
2018-09-21T04:21:21.336Z,99683.25
2018-09-21T04:23:50.261Z,99682.52
2018-09-21T04:26:19.236Z,99676.93
2018-09-21T04:28:48.239Z,99670.98
2018-09-21T04:31:17.206Z,99672.41
2018-09-21T04:33:46.165Z,99669.88
2018-09-21T04:36:15.225Z,99676.20
2018-09-21T04:38:44.097Z,99670.34
2018-09-21T04:41:13.035Z,99679.37
2018-09-21T04:43:41.965Z,99679.63
2018-09-21T04:46:10.897Z,99674.60
2018-09-21T04:48:39.877Z,99677.00
2018-09-21T04:51:08.894Z,99680.66
2018-09-21T04:53:37.834Z,99659.47
2018-09-21T04:56:06.759Z,99656.41
2018-09-21T04:58:35.737Z,99662.02
2018-09-21T05:01:04.638Z,99653.69
2018-09-21T05:03:33.637Z,99654.30
2018-09-21T05:06:02.554Z,99650.25
2018-09-21T05:08:31.500Z,99645.13
2018-09-21T05:11:00.519Z,99647.78
2018-09-21T05:13:29.510Z,99649.66
2018-09-21T05:15:58.437Z,99644.85
2018-09-21T05:18:27.393Z,99644.63
2018-09-21T05:20:56.295Z,99652.25
2018-09-21T05:23:25.267Z,99645.02
2018-09-21T05:25:54.188Z,99646.40
2018-09-21T05:28:23.137Z,99642.59
2018-09-21T05:30:52.050Z,99649.67
2018-09-21T05:33:21.047Z,99644.13
2018-09-21T05:35:49.983Z,99635.79
2018-09-21T05:38:19.057Z,99645.39
2018-09-21T05:40:47.990Z,99644.91
2018-09-21T05:43:16.975Z,99650.02
2018-09-21T05:45:45.895Z,99640.83
2018-09-21T05:48:14.915Z,99634.83
2018-09-21T05:50:43.881Z,99629.13
2018-09-21T05:53:12.879Z,99647.93
2018-09-21T05:55:41.809Z,99638.58
2018-09-21T05:58:10.866Z,99642.30
2018-09-21T06:00:39.784Z,99641.90
2018-09-21T06:03:08.785Z,99644.82
2018-09-21T06:05:37.744Z,99635.98
2018-09-21T06:08:06.797Z,99620.78
2018-09-21T06:10:35.736Z,99624.94
2018-09-21T06:13:04.739Z,99624.52
2018-09-21T06:15:33.720Z,99630.16
2018-09-21T06:18:02.633Z,99637.11
2018-09-21T06:20:31.610Z,99625.42
2018-09-21T06:23:00.578Z,99636.04
2018-09-21T06:25:30.477Z,99637.63
2018-09-21T06:27:59.408Z,99623.32
2018-09-21T06:30:28.366Z,99619.54
2018-09-21T06:32:57.290Z,99625.27
2018-09-21T06:35:26.354Z,99620.59
2018-09-21T06:37:55.309Z,99626.59
2018-09-21T06:40:24.326Z,99635.77
2018-09-21T06:42:53.280Z,99628.31
2018-09-21T06:45:22.330Z,99626.26
2018-09-21T06:47:51.324Z,99636.42
2018-09-21T06:50:20.359Z,99628.18
2018-09-21T06:52:49.308Z,99628.52
2018-09-21T06:55:18.298Z,99641.38
2018-09-21T06:57:47.273Z,99649.87
2018-09-21T07:00:16.278Z,99653.38
2018-09-21T07:02:45.217Z,99654.25
2018-09-21T07:05:16.370Z,99654.64
2018-09-21T07:07:45.845Z,99658.52
2018-09-21T07:10:15.294Z,99654.69
2018-09-21T07:12:44.328Z,99634.47
2018-09-21T07:15:13.338Z,99645.54
2018-09-21T07:17:42.953Z,99645.86
2018-09-21T07:20:11.947Z,99645.36
2018-09-21T07:22:40.927Z,99638.91
2018-09-21T07:25:09.927Z,99636.81
2018-09-21T07:27:38.891Z,99637.73
2018-09-21T07:30:07.915Z,99629.84
2018-09-21T07:32:36.917Z,99635.39
2018-09-21T07:35:05.975Z,99632.89
2018-09-21T07:37:34.991Z,99636.67
2018-09-21T07:40:04.427Z,99629.14
2018-09-21T07:42:33.346Z,99637.08
2018-09-21T07:45:02.294Z,99641.16
2018-09-21T07:47:31.192Z,99639.41
2018-09-21T07:50:00.117Z,99632.84
2018-09-21T07:52:29.008Z,99638.89
2018-09-21T07:54:57.994Z,99632.66
2018-09-21T07:57:26.934Z,99637.88
2018-09-21T07:59:55.847Z,99638.18
2018-09-21T08:02:25.206Z,99645.67
2018-09-21T08:04:54.098Z,99652.57
2018-09-21T08:07:23.089Z,99647.28
2018-09-21T08:09:51.980Z,99644.50
2018-09-21T08:12:20.938Z,99637.09
2018-09-21T08:14:49.835Z,99636.47
2018-09-21T08:17:18.778Z,99631.02
2018-09-21T08:19:47.682Z,99639.28
2018-09-21T08:22:16.633Z,99641.38
2018-09-21T08:24:45.540Z,99626.14
2018-09-21T08:27:16.703Z,99624.66
2018-09-21T08:29:45.889Z,99624.45
2018-09-21T08:32:14.948Z,99626.94
2018-09-21T08:34:43.993Z,99628.32
2018-09-21T08:37:12.994Z,99624.73
2018-09-21T08:39:41.938Z,99621.27
2018-09-21T08:42:11.145Z,99612.44
2018-09-21T08:44:40.045Z,99608.38
2018-09-21T08:47:09.238Z,99608.39
2018-09-21T08:49:38.128Z,99594.78
2018-09-21T08:52:07.056Z,99599.80
2018-09-21T08:54:35.968Z,99599.14
2018-09-21T08:57:04.914Z,99585.62
2018-09-21T08:59:33.784Z,99592.81
2018-09-21T09:02:02.717Z,99596.90
2018-09-21T09:04:31.632Z,99614.22
2018-09-21T09:07:00.616Z,99607.69
2018-09-21T09:09:29.494Z,99616.78
2018-09-21T09:11:58.486Z,99612.95
2018-09-21T09:14:27.379Z,99615.34
2018-09-21T09:16:56.338Z,99615.44
2018-09-21T09:19:25.251Z,99613.09
2018-09-21T09:21:54.169Z,99621.06
2018-09-21T09:24:23.078Z,99632.22
2018-09-21T09:26:52.026Z,99634.47
2018-09-21T09:29:20.960Z,99649.33
2018-09-21T09:31:49.954Z,99629.02
2018-09-21T09:34:18.920Z,99604.90
2018-09-21T09:36:47.919Z,99606.37
2018-09-21T09:39:16.890Z,99604.06
2018-09-21T09:41:45.838Z,99595.92
2018-09-21T09:44:14.830Z,99580.48
2018-09-21T09:46:43.741Z,99578.63
2018-09-21T09:49:12.777Z,99588.72
2018-09-21T09:51:41.715Z,99595.10
2018-09-21T09:54:10.698Z,99581.13
2018-09-21T09:56:39.650Z,99578.88
2018-09-21T09:59:08.618Z,99583.66
2018-09-21T10:01:37.543Z,99578.03
2018-09-21T10:04:06.509Z,99591.92
2018-09-21T10:06:35.425Z,99603.83
2018-09-21T10:09:05.428Z,99587.27
2018-09-21T10:11:34.353Z,99588.00
2018-09-21T10:14:03.354Z,99577.84
2018-09-21T10:16:32.399Z,99581.63
2018-09-21T10:19:01.377Z,99582.01
2018-09-21T10:21:30.301Z,99594.70
2018-09-21T10:23:59.340Z,99582.64
2018-09-21T10:26:28.278Z,99566.78
2018-09-21T10:28:57.230Z,99569.53
2018-09-21T10:31:26.282Z,99574.00
2018-09-21T10:33:55.278Z,99572.94
2018-09-21T10:36:24.263Z,99565.38
2018-09-21T10:38:53.373Z,99560.59
2018-09-21T10:41:22.312Z,99563.56
2018-09-21T10:43:51.267Z,99540.79
2018-09-21T10:46:20.174Z,99556.52
2018-09-21T10:48:49.114Z,99537.78
2018-09-21T10:51:18.037Z,99540.40
2018-09-21T10:53:47.087Z,99525.31
2018-09-21T10:56:16.012Z,99535.11
2018-09-21T10:58:45.006Z,99537.34
2018-09-21T11:01:13.978Z,99535.11
2018-09-21T11:03:42.978Z,99542.43
2018-09-21T11:06:11.917Z,99537.64
2018-09-21T11:08:40.874Z,99522.59
2018-09-21T11:11:09.810Z,99540.50
2018-09-21T11:13:38.824Z,99532.00
2018-09-21T11:16:08.037Z,99542.69
2018-09-21T11:18:37.003Z,99556.28
2018-09-21T11:21:05.946Z,99560.27
2018-09-21T11:23:34.906Z,99592.20
2018-09-21T11:26:03.831Z,99606.53
2018-09-21T11:28:32.826Z,99580.63
2018-09-21T11:31:04.170Z,99568.34
2018-09-21T11:33:33.105Z,99542.20
2018-09-21T11:36:02.019Z,99572.89
2018-09-21T11:38:31.001Z,99588.68
2018-09-21T11:41:00.218Z,99597.75
2018-09-21T11:43:29.118Z,99602.39
2018-09-21T11:45:58.082Z,99594.22
2018-09-21T11:48:27.129Z,99605.58
2018-09-21T11:50:56.021Z,99611.52
2018-09-21T11:53:24.993Z,99619.37
2018-09-21T11:55:53.916Z,99612.75
2018-09-21T11:58:22.887Z,99596.53
2018-09-21T12:00:52.389Z,99598.32
2018-09-21T12:03:21.359Z,99600.76
2018-09-21T12:05:50.268Z,99610.21
2018-09-21T12:08:19.253Z,99606.45
2018-09-21T12:10:48.853Z,99607.80
2018-09-21T12:13:18.409Z,99592.18
2018-09-21T12:15:47.648Z,99599.89
2018-09-21T12:18:16.766Z,99597.59
2018-09-21T12:20:45.772Z,99604.29
2018-09-21T12:23:14.810Z,99606.88
2018-09-21T12:25:43.844Z,99609.59
2018-09-21T12:28:12.984Z,99605.23
2018-09-21T12:30:41.918Z,99629.11
2018-09-21T12:33:10.965Z,99653.98
2018-09-21T12:35:40.017Z,99666.56
2018-09-21T12:38:09.221Z,99700.92
2018-09-21T12:40:38.346Z,99711.48
2018-09-21T12:43:07.546Z,99706.45
2018-09-21T12:45:36.915Z,99736.95
2018-09-21T12:48:05.951Z,99736.71
2018-09-21T12:50:35.078Z,99745.13
2018-09-21T12:53:04.102Z,99752.59
2018-09-21T12:55:33.167Z,99757.48
2018-09-21T12:58:02.278Z,99753.59
2018-09-21T13:00:36.411Z,99772.08
2018-09-21T13:03:05.555Z,99751.32
2018-09-21T13:05:35.672Z,99749.17
2018-09-21T13:08:04.778Z,99763.09
2018-09-21T13:10:34.195Z,99754.86
2018-09-21T13:13:03.267Z,99757.30
2018-09-21T13:15:32.325Z,99766.11
2018-09-21T13:18:01.254Z,99784.61
2018-09-21T13:20:30.249Z,99790.39
2018-09-21T13:22:59.218Z,99774.13
2018-09-21T13:25:28.393Z,99781.87
2018-09-21T13:27:57.338Z,99772.16
2018-09-21T13:30:26.316Z,99781.22
2018-09-21T13:32:55.231Z,99781.62
2018-09-21T13:35:24.206Z,99776.38
2018-09-21T13:37:53.178Z,99769.02
2018-09-21T13:40:22.266Z,99762.16
2018-09-21T13:42:51.317Z,99770.60
2018-09-21T13:45:22.005Z,99784.26
2018-09-21T13:47:52.232Z,99789.66
2018-09-21T13:50:21.454Z,99794.34
2018-09-21T13:52:50.491Z,99791.36
2018-09-21T13:55:19.493Z,99808.59
2018-09-21T13:57:48.479Z,99786.26
2018-09-21T14:00:17.491Z,99799.07
2018-09-21T14:02:46.445Z,99819.71
2018-09-21T14:05:15.406Z,99838.47
2018-09-21T14:07:44.411Z,99848.58
2018-09-21T14:10:13.384Z,99865.29
2018-09-21T14:12:42.382Z,99880.78
2018-09-21T14:15:11.331Z,99880.98
2018-09-21T14:17:40.265Z,99872.63
2018-09-21T14:20:09.202Z,99866.38
2018-09-21T14:22:38.167Z,99873.42
2018-09-21T14:25:07.235Z,99860.58
2018-09-21T14:27:36.366Z,99870.91
2018-09-21T14:30:05.437Z,99874.36
2018-09-21T14:32:34.427Z,99873.75
2018-09-21T14:35:03.376Z,99881.02
2018-09-21T14:37:32.342Z,99872.66
2018-09-21T14:40:01.267Z,99868.23
2018-09-21T14:42:30.238Z,99865.48
2018-09-21T14:44:59.450Z,99882.72
2018-09-21T14:47:28.426Z,99896.53
2018-09-21T14:49:57.321Z,99901.29
2018-09-21T14:52:26.271Z,99904.50
2018-09-21T14:54:55.238Z,99925.00
2018-09-21T14:57:24.275Z,99924.06
2018-09-21T14:59:53.657Z,99927.13
2018-09-21T15:02:22.685Z,99934.56
2018-09-21T15:04:51.916Z,99936.57
2018-09-21T15:07:20.836Z,99950.27
2018-09-21T15:09:49.807Z,99948.09
2018-09-21T15:12:19.048Z,99951.58
2018-09-21T15:14:47.966Z,99951.59
2018-09-21T15:17:16.913Z,99955.80
2018-09-21T15:19:45.910Z,99955.66
2018-09-21T15:22:15.143Z,99951.67
2018-09-21T15:24:44.173Z,99971.17
2018-09-21T15:27:13.107Z,99972.70
2018-09-21T15:29:42.071Z,99987.95
2018-09-21T15:32:11.142Z,99979.54
2018-09-21T15:34:40.042Z,99966.61
2018-09-21T15:37:08.974Z,99975.04
2018-09-21T15:39:37.940Z,99978.17
2018-09-21T15:42:06.891Z,99987.28
2018-09-21T15:44:35.810Z,99982.10
2018-09-21T15:47:04.796Z,99994.94
2018-09-21T15:49:34.057Z,100003.77
2018-09-21T15:52:03.117Z,100011.00
2018-09-21T15:54:32.037Z,100016.84
2018-09-21T15:57:01.029Z,100012.58
2018-09-21T15:59:30.301Z,100019.80
2018-09-21T16:01:59.276Z,100025.77
2018-09-21T16:04:28.154Z,100028.34
2018-09-21T16:06:57.126Z,100035.44
2018-09-21T16:09:26.019Z,100028.58
2018-09-21T16:11:55.047Z,100045.95
2018-09-21T16:14:23.986Z,100040.36
2018-09-21T16:16:52.896Z,100043.92
2018-09-21T16:19:21.836Z,100045.48
2018-09-21T16:21:50.965Z,100048.89
2018-09-21T16:24:19.942Z,100047.22
2018-09-21T16:26:48.867Z,100051.00
2018-09-21T16:29:17.823Z,100060.06
2018-09-21T16:31:46.857Z,100066.41
2018-09-21T16:34:15.822Z,100081.89
2018-09-21T16:36:44.798Z,100074.81
2018-09-21T16:39:13.832Z,100081.99
2018-09-21T16:41:42.913Z,100094.25
2018-09-21T16:44:12.613Z,100097.35
2018-09-21T16:46:41.555Z,100092.82
2018-09-21T16:49:10.561Z,100104.81
2018-09-21T16:51:39.552Z,100113.22
2018-09-21T16:54:08.608Z,100110.11
2018-09-21T16:56:37.766Z,100112.18
2018-09-21T16:59:06.716Z,100117.52
2018-09-21T17:01:35.674Z,100116.94
2018-09-21T17:04:04.701Z,100124.00
2018-09-21T17:06:33.720Z,100122.31
2018-09-21T17:09:02.812Z,100128.58
2018-09-21T17:11:31.777Z,100138.17
2018-09-21T17:14:00.750Z,100148.69
2018-09-21T17:16:29.746Z,100157.30
2018-09-21T17:18:58.733Z,100167.66
2018-09-21T17:21:27.669Z,100172.87
2018-09-21T17:23:56.646Z,100174.86
2018-09-21T17:26:25.630Z,100182.43
2018-09-21T17:28:54.728Z,100178.44
2018-09-21T17:31:24.072Z,100196.03
2018-09-21T17:33:53.077Z,100199.83
2018-09-21T17:36:22.148Z,100208.61
2018-09-21T17:38:51.126Z,100218.48
2018-09-21T17:41:20.122Z,100218.38
2018-09-21T17:43:49.158Z,100231.55
2018-09-21T17:46:18.141Z,100227.92
2018-09-21T17:48:47.162Z,100239.13
2018-09-21T17:51:16.201Z,100241.00
2018-09-21T17:53:45.174Z,100245.71
2018-09-21T17:56:14.184Z,100246.39
2018-09-21T17:58:43.166Z,100258.06
2018-09-21T18:01:12.138Z,100264.81
2018-09-21T18:03:41.087Z,100260.50
2018-09-21T18:06:10.092Z,100264.00
2018-09-21T18:08:39.098Z,100269.98
2018-09-21T18:11:08.078Z,100271.95
2018-09-21T18:13:37.048Z,100279.70
2018-09-21T18:16:06.106Z,100287.62
2018-09-21T18:18:35.014Z,100290.94
2018-09-21T18:21:03.997Z,100298.02
2018-09-21T18:23:32.968Z,100303.02
2018-09-21T18:26:02.033Z,100302.05
2018-09-21T18:28:31.001Z,100305.27
2018-09-21T18:30:59.998Z,100311.27
2018-09-21T18:33:28.997Z,100319.36
2018-09-21T18:35:58.002Z,100319.44
2018-09-21T18:38:26.958Z,100327.47
2018-09-21T18:40:55.954Z,100332.63
2018-09-21T18:43:25.113Z,100332.61
2018-09-21T18:45:54.106Z,100334.72
2018-09-21T18:48:23.081Z,100346.84
2018-09-21T18:50:52.173Z,100349.05
2018-09-21T18:53:21.138Z,100361.86
2018-09-21T18:55:50.168Z,100365.24
2018-09-21T18:58:19.156Z,100375.50
2018-09-21T19:00:48.291Z,100385.39
2018-09-21T19:03:17.301Z,100389.45
2018-09-21T19:05:46.426Z,100390.48
2018-09-21T19:08:15.425Z,100391.48
2018-09-21T19:10:44.486Z,100397.03
2018-09-21T19:13:13.426Z,100403.62
2018-09-21T19:15:42.403Z,100405.28
2018-09-21T19:18:11.634Z,100410.69
2018-09-21T19:20:40.647Z,100418.06
2018-09-21T19:23:09.627Z,100418.18
2018-09-21T19:25:38.645Z,100415.52
2018-09-21T19:28:07.658Z,100419.06
2018-09-21T19:30:36.850Z,100417.56
2018-09-21T19:33:06.081Z,100423.31
2018-09-21T19:35:35.327Z,100424.61
2018-09-21T19:38:05.190Z,100434.64
2018-09-21T19:40:34.097Z,100431.15
2018-09-21T19:43:03.209Z,100436.34
2018-09-21T19:45:32.176Z,100450.47
2018-09-21T19:48:01.149Z,100453.20
2018-09-21T19:50:30.039Z,100445.78
2018-09-21T19:52:59.018Z,100455.61
2018-09-21T19:55:27.969Z,100448.74
2018-09-21T19:57:57.554Z,100453.17
2018-09-21T20:00:26.550Z,100458.63
2018-09-21T20:02:55.534Z,100449.06
2018-09-21T20:05:24.538Z,100466.24
2018-09-21T20:07:53.750Z,100465.16
2018-09-21T20:10:22.695Z,100475.65
2018-09-21T20:12:51.659Z,100477.41
2018-09-21T20:15:20.575Z,100480.54
2018-09-21T20:17:49.822Z,100475.13
2018-09-21T20:20:18.802Z,100484.27
2018-09-21T20:22:47.754Z,100478.66
2018-09-21T20:25:16.843Z,100483.56
2018-09-21T20:27:45.805Z,100485.42
2018-09-21T20:30:19.774Z,100485.63
2018-09-21T20:32:53.929Z,100498.17
2018-09-21T20:35:22.913Z,100513.73
2018-09-21T20:37:51.884Z,100530.17
2018-09-21T20:40:20.890Z,100523.03
2018-09-21T20:42:49.854Z,100535.51
2018-09-21T20:45:18.846Z,100533.21
2018-09-21T20:47:47.805Z,100527.64
2018-09-21T20:50:16.815Z,100537.70
2018-09-21T20:52:45.822Z,100544.97
2018-09-21T20:55:14.758Z,100560.17
2018-09-21T20:57:43.742Z,100559.17
2018-09-21T21:00:12.668Z,100567.22
2018-09-21T21:02:41.628Z,100570.07
2018-09-21T21:05:10.583Z,100573.23
2018-09-21T21:07:39.530Z,100563.66
2018-09-21T21:10:08.455Z,100568.38
2018-09-21T21:12:37.401Z,100565.44
2018-09-21T21:15:06.846Z,100558.74
2018-09-21T21:17:35.842Z,100567.88
2018-09-21T21:20:04.783Z,100565.28
2018-09-21T21:22:33.696Z,100573.64
2018-09-21T21:25:02.617Z,100560.45
2018-09-21T21:27:31.522Z,100552.72
2018-09-21T21:30:00.476Z,100564.04
2018-09-21T21:32:29.430Z,100562.13
2018-09-21T21:34:58.414Z,100570.78
2018-09-21T21:37:27.381Z,100564.09
2018-09-21T21:39:56.585Z,100570.15
2018-09-21T21:42:25.562Z,100573.42
2018-09-21T21:44:54.582Z,100583.22
2018-09-21T21:47:23.518Z,100588.81
2018-09-21T21:49:52.492Z,100586.24
2018-09-21T21:52:21.429Z,100589.23
2018-09-21T21:54:50.415Z,100601.62
2018-09-21T21:57:19.366Z,100597.23
2018-09-21T21:59:48.430Z,100600.22
2018-09-21T22:02:17.457Z,100597.04
2018-09-21T22:04:46.461Z,100599.64
2018-09-21T22:07:15.484Z,100583.30
2018-09-21T22:09:44.458Z,100599.64
2018-09-21T22:12:18.445Z,100592.95
2018-09-21T22:14:47.433Z,100587.74
2018-09-21T22:17:16.458Z,100587.55
2018-09-21T22:19:45.456Z,100592.17
2018-09-21T22:22:14.417Z,100591.03
2018-09-21T22:24:43.430Z,100587.81
2018-09-21T22:27:12.414Z,100588.89
2018-09-21T22:29:41.769Z,100588.34
2018-09-21T22:32:11.322Z,100578.86
2018-09-21T22:34:40.745Z,100597.92
2018-09-21T22:37:10.097Z,100587.34
2018-09-21T22:39:39.509Z,100598.88
2018-09-21T22:42:09.135Z,100602.92
2018-09-21T22:44:38.441Z,100597.04
2018-09-21T22:47:08.006Z,100610.15
2018-09-21T22:49:37.346Z,100607.08
2018-09-21T22:52:06.621Z,100601.92
2018-09-21T22:54:35.847Z,100598.64
2018-09-21T22:57:05.455Z,100606.79
2018-09-21T22:59:35.038Z,100616.20
2018-09-21T23:02:04.468Z,100623.31
2018-09-21T23:04:33.868Z,100624.38
2018-09-21T23:07:03.338Z,100630.13
2018-09-21T23:09:32.726Z,100635.88
2018-09-21T23:12:02.336Z,100647.78
2018-09-21T23:14:31.994Z,100643.04
2018-09-21T23:17:01.353Z,100651.55
2018-09-21T23:19:30.806Z,100640.95
2018-09-21T23:22:00.158Z,100662.37
2018-09-21T23:24:29.450Z,100669.81
2018-09-21T23:26:58.651Z,100664.89
2018-09-21T23:29:27.914Z,100673.08
2018-09-21T23:31:57.163Z,100665.25
2018-09-21T23:34:26.712Z,100660.39
2018-09-21T23:36:55.974Z,100656.09
2018-09-21T23:39:25.197Z,100659.05
2018-09-21T23:41:54.689Z,100664.97
2018-09-21T23:44:24.312Z,100669.23
2018-09-21T23:46:53.618Z,100661.78
2018-09-21T23:49:23.123Z,100670.08
2018-09-21T23:51:52.366Z,100675.66
2018-09-21T23:54:21.741Z,100687.80
2018-09-21T23:56:51.047Z,100688.55
2018-09-21T23:59:20.341Z,100688.76
